createdAt,value
2016-08-13T00:00:04.043Z,80.96
2016-08-13T00:01:03.993Z,81.63
2016-08-13T00:02:03.963Z,81.43
2016-08-13T00:03:04.110Z,81.43
2016-08-13T00:04:04.065Z,81.63
2016-08-13T00:05:03.807Z,81.63
2016-08-13T00:06:03.774Z,81.34
2016-08-13T00:07:03.717Z,81.28
2016-08-13T00:08:03.872Z,81.48
2016-08-13T00:09:03.644Z,81.67
2016-08-13T00:10:03.582Z,81.63
2016-08-13T00:11:03.753Z,81.43
2016-08-13T00:12:03.694Z,81.43
2016-08-13T00:13:03.460Z,81.43
2016-08-13T00:14:03.414Z,81.63
2016-08-13T00:15:02.863Z,81.43
2016-08-13T00:16:03.523Z,81.34
2016-08-13T00:17:03.269Z,81.38
2016-08-13T00:18:03.220Z,81.24
2016-08-13T00:19:03.193Z,81.53
2016-08-13T00:20:03.328Z,81.34
2016-08-13T00:21:03.301Z,81.43
2016-08-13T00:22:03.047Z,81.82
2016-08-13T00:23:03.012Z,81.82
2016-08-13T00:24:03.162Z,82.1
2016-08-13T00:25:02.937Z,82.49
2016-08-13T00:26:02.872Z,82.78
2016-08-13T00:27:02.823Z,82.49
2016-08-13T00:28:02.780Z,82.59
2016-08-13T00:29:02.731Z,82.4
2016-08-13T00:30:02.692Z,82.68
2016-08-13T00:31:02.650Z,82.59
2016-08-13T00:32:02.603Z,83.16
2016-08-13T00:33:01.853Z,82.59
2016-08-13T00:34:02.520Z,82.49
2016-08-13T00:35:02.468Z,82.4
2016-08-13T00:36:02.409Z,82.4
2016-08-13T00:37:02.369Z,82.49
2016-08-13T00:38:02.333Z,82.3
2016-08-13T00:39:02.278Z,82.59
2016-08-13T00:40:02.233Z,82.59
2016-08-13T00:41:02.192Z,82.68
2016-08-13T00:42:02.148Z,82.97
2016-08-13T00:43:02.112Z,82.4
2016-08-13T00:44:02.093Z,82.2
2016-08-13T00:45:02.015Z,82.4
2016-08-13T00:46:01.303Z,82.49
2016-08-13T00:47:01.922Z,83.07
2016-08-13T00:48:01.893Z,82.59
2016-08-13T00:49:01.832Z,82.87
2016-08-13T00:50:01.795Z,82.59
2016-08-13T00:51:01.744Z,83.07
2016-08-13T00:52:01.693Z,83.03
2016-08-13T00:53:01.652Z,82.78
2016-08-13T00:54:01.619Z,82.97
2016-08-13T00:55:01.565Z,83.07
2016-08-13T00:56:01.515Z,82.68
2016-08-13T00:57:01.471Z,82.59
2016-08-13T00:58:01.430Z,82.49
2016-08-13T00:59:01.384Z,82.4
2016-08-13T01:00:01.331Z,82.49
2016-08-13T01:01:01.298Z,82.87
2016-08-13T01:02:01.239Z,82.93
2016-08-13T01:03:01.212Z,83.03
2016-08-13T01:04:00.653Z,82.74
2016-08-13T01:05:01.314Z,83.31
2016-08-13T01:06:01.065Z,83.31
2016-08-13T01:07:01.020Z,83.6
2016-08-13T01:08:00.974Z,83.8
2016-08-13T01:09:00.232Z,83.51
2016-08-13T01:10:01.085Z,83.6
2016-08-13T01:11:00.834Z,83.6
2016-08-13T01:12:00.800Z,83.03
2016-08-13T01:13:00.754Z,83.41
2016-08-13T01:14:00.699Z,83.8
2016-08-13T01:15:00.863Z,83.6
2016-08-13T01:16:00.623Z,83.12
2016-08-13T01:16:59.873Z,83.31
2016-08-13T01:18:00.514Z,83.31
2016-08-13T01:19:00.494Z,83.12
2016-08-13T01:20:00.637Z,83.12
2016-08-13T01:21:00.384Z,83.8
2016-08-13T01:22:00.344Z,83.8
2016-08-13T01:23:00.294Z,83.6
2016-08-13T01:24:00.270Z,83.8
2016-08-13T01:25:00.215Z,83.6
2016-08-13T01:25:59.473Z,83.8
2016-08-13T01:27:00.122Z,83.6
2016-08-13T01:27:59.366Z,83.22
2016-08-13T01:29:00.019Z,83.31
2016-08-13T01:29:59.294Z,83.51
2016-08-13T01:30:59.935Z,83.6
2016-08-13T01:31:59.918Z,83.89
2016-08-13T01:32:59.853Z,83.6
2016-08-13T01:33:59.999Z,83.51
2016-08-13T01:34:59.957Z,83.6
2016-08-13T01:35:59.706Z,83.31
2016-08-13T01:36:59.863Z,83.89
2016-08-13T01:37:59.623Z,83.31
2016-08-13T01:38:59.773Z,83.22
2016-08-13T01:39:59.534Z,83.6
2016-08-13T01:40:59.478Z,83.6
2016-08-13T01:41:59.456Z,83.31
2016-08-13T01:42:59.394Z,83.31
2016-08-13T01:43:59.360Z,83.22
2016-08-13T01:44:59.502Z,83.6
2016-08-13T01:45:59.261Z,83.6
2016-08-13T01:46:59.436Z,83.41
2016-08-13T01:47:59.168Z,83.31
2016-08-13T01:48:59.337Z,83.51
2016-08-13T01:49:59.494Z,83.7
2016-08-13T01:50:59.224Z,83.6
2016-08-13T01:51:58.985Z,83.89
2016-08-13T01:52:58.945Z,83.7
2016-08-13T01:53:59.311Z,83.7
2016-08-13T01:54:58.848Z,83.89
2016-08-13T01:55:58.804Z,84.23
2016-08-13T01:56:58.765Z,83.56
2016-08-13T01:57:58.715Z,83.89
2016-08-13T01:58:58.675Z,83.6
2016-08-13T01:59:58.626Z,83.56
2016-08-13T02:00:58.575Z,83.6
2016-08-13T02:01:58.733Z,83.6
2016-08-13T02:02:58.485Z,84.04
2016-08-13T02:03:58.445Z,83.94
2016-08-13T02:04:58.393Z,83.85
2016-08-13T02:05:58.555Z,84.04
2016-08-13T02:06:58.305Z,83.7
2016-08-13T02:07:58.285Z,83.56
2016-08-13T02:08:58.208Z,84.23
2016-08-13T02:09:58.388Z,83.94
2016-08-13T02:10:57.425Z,83.65
2016-08-13T02:11:58.075Z,84.04
2016-08-13T02:12:58.067Z,83.85
2016-08-13T02:13:57.283Z,84.23
2016-08-13T02:14:57.266Z,84.08
2016-08-13T02:15:58.110Z,83.7
2016-08-13T02:16:57.860Z,84.14
2016-08-13T02:17:58.011Z,83.98
2016-08-13T02:18:57.960Z,83.94
2016-08-13T02:19:57.924Z,84.18
2016-08-13T02:20:57.879Z,83.6
2016-08-13T02:21:57.623Z,83.98
2016-08-13T02:22:57.781Z,83.89
2016-08-13T02:23:57.724Z,83.7
2016-08-13T02:24:57.477Z,84.08
2016-08-13T02:25:57.443Z,83.85
2016-08-13T02:26:56.693Z,84.14
2016-08-13T02:27:57.549Z,84.33
2016-08-13T02:28:57.516Z,84.47
2016-08-13T02:29:56.763Z,84.33
2016-08-13T02:30:57.221Z,84.33
2016-08-13T02:31:57.375Z,84.42
2016-08-13T02:32:57.342Z,83.75
2016-08-13T02:33:57.300Z,84.27
2016-08-13T02:34:57.266Z,84.08
2016-08-13T02:35:57.184Z,83.8
2016-08-13T02:36:56.945Z,84.18
2016-08-13T02:37:56.895Z,84.27
2016-08-13T02:38:56.854Z,84.08
2016-08-13T02:39:56.113Z,83.6
2016-08-13T02:40:57.361Z,84.18
2016-08-13T02:41:56.705Z,84.14
2016-08-13T02:42:56.873Z,84.23
2016-08-13T02:43:57.026Z,84.04
2016-08-13T02:44:56.079Z,84.33
2016-08-13T02:45:56.534Z,84.23
2016-08-13T02:46:55.795Z,83.75
2016-08-13T02:47:56.514Z,83.94
2016-08-13T02:48:56.395Z,84.04
2016-08-13T02:49:56.353Z,84.04
2016-08-13T02:50:56.305Z,84.14
2016-08-13T02:51:56.266Z,84.52
2016-08-13T02:52:56.211Z,84.42
2016-08-13T02:53:56.390Z,84.81
2016-08-13T02:54:56.127Z,84.23
2016-08-13T02:55:56.078Z,84.14
2016-08-13T02:56:56.044Z,84.52
2016-08-13T02:57:55.984Z,84.52
2016-08-13T02:58:55.934Z,84.71
2016-08-13T02:59:55.894Z,84.81
2016-08-13T03:00:55.864Z,85.28
2016-08-13T03:01:55.805Z,85.58
2016-08-13T03:02:55.756Z,84.42
2016-08-13T03:03:55.704Z,84.61
2016-08-13T03:04:55.666Z,84.42
2016-08-13T03:05:55.624Z,84.52
2016-08-13T03:06:55.574Z,84.33
2016-08-13T03:07:54.835Z,84.37
2016-08-13T03:08:55.486Z,84.33
2016-08-13T03:09:55.646Z,84.33
2016-08-13T03:10:55.395Z,85.19
2016-08-13T03:11:55.353Z,85.38
2016-08-13T03:12:55.302Z,85.48
2016-08-13T03:13:54.557Z,85.1
2016-08-13T03:14:55.207Z,84.42
2016-08-13T03:15:54.463Z,84.42
2016-08-13T03:16:55.113Z,85.19
2016-08-13T03:17:55.069Z,84.91
2016-08-13T03:18:55.224Z,84.52
2016-08-13T03:19:54.974Z,85
2016-08-13T03:20:54.934Z,85.48
2016-08-13T03:21:55.093Z,85.1
2016-08-13T03:22:54.844Z,85.38
2016-08-13T03:23:54.863Z,85.28
2016-08-13T03:24:54.757Z,85.48
2016-08-13T03:25:55.314Z,85.19
2016-08-13T03:26:54.657Z,85.38
2016-08-13T03:27:54.631Z,85.58
2016-08-13T03:28:54.573Z,85.19
2016-08-13T03:29:54.063Z,85.67
2016-08-13T03:30:54.692Z,85.77
2016-08-13T03:31:54.434Z,85.82
2016-08-13T03:32:54.589Z,85.96
2016-08-13T03:33:54.343Z,85.72
2016-08-13T03:34:54.514Z,86.4
2016-08-13T03:35:54.254Z,86.4
2016-08-13T03:36:54.414Z,86.49
2016-08-13T03:37:54.164Z,86.58
2016-08-13T03:38:54.114Z,86.21
2016-08-13T03:39:53.374Z,86.21
2016-08-13T03:40:54.023Z,86.21
2016-08-13T03:41:53.975Z,85.92
2016-08-13T03:42:53.933Z,86.21
2016-08-13T03:43:53.890Z,86.3
2016-08-13T03:44:53.843Z,86.58
2016-08-13T03:45:53.794Z,86.49
2016-08-13T03:46:53.253Z,86.4
2016-08-13T03:47:53.906Z,86.68
2016-08-13T03:48:53.861Z,86.4
2016-08-13T03:49:53.663Z,86.58
2016-08-13T03:50:53.563Z,86.15
2016-08-13T03:51:53.513Z,86.05
2016-08-13T03:52:53.463Z,86.11
2016-08-13T03:53:53.833Z,86.11
2016-08-13T03:54:53.383Z,86.11
2016-08-13T03:55:53.355Z,86.11
2016-08-13T03:56:53.339Z,86.15
2016-08-13T03:57:53.240Z,86.11
2016-08-13T03:58:53.408Z,86.68
2016-08-13T03:59:53.193Z,86.58
2016-08-13T04:00:53.102Z,86.3
2016-08-13T04:01:53.072Z,86.4
2016-08-13T04:02:53.012Z,86.49
2016-08-13T04:03:52.967Z,86.58
2016-08-13T04:04:52.924Z,86.4
2016-08-13T04:05:52.884Z,86.63
2016-08-13T04:06:53.032Z,86.49
2016-08-13T04:07:52.781Z,86.78
2016-08-13T04:08:52.729Z,86.68
2016-08-13T04:09:52.698Z,86.88
2016-08-13T04:10:53.265Z,87.26
2016-08-13T04:11:52.600Z,86.88
2016-08-13T04:12:52.547Z,86.68
2016-08-13T04:13:52.506Z,86.4
2016-08-13T04:14:52.453Z,85.92
2016-08-13T04:15:52.422Z,86.4
2016-08-13T04:16:52.574Z,86.4
2016-08-13T04:17:52.312Z,86.4
2016-08-13T04:18:52.282Z,86.58
2016-08-13T04:19:51.734Z,86.21
2016-08-13T04:20:52.198Z,85.92
2016-08-13T04:21:52.152Z,86.01
2016-08-13T04:22:52.093Z,86.11
2016-08-13T04:23:52.051Z,86.01
2016-08-13T04:24:52.026Z,86.01
2016-08-13T04:25:51.956Z,85.53
2016-08-13T04:26:51.912Z,86.01
2016-08-13T04:27:51.897Z,86.01
2016-08-13T04:28:51.824Z,86.49
2016-08-13T04:29:51.071Z,86.58
2016-08-13T04:30:51.721Z,85.92
2016-08-13T04:31:51.674Z,86.01
2016-08-13T04:32:51.631Z,86.01
2016-08-13T04:33:51.590Z,86.49
2016-08-13T04:34:51.542Z,85.72
2016-08-13T04:35:51.502Z,85.86
2016-08-13T04:36:51.653Z,85.92
2016-08-13T04:37:51.604Z,86.01
2016-08-13T04:38:51.352Z,85.82
2016-08-13T04:39:51.922Z,85.63
2016-08-13T04:40:51.264Z,85.44
2016-08-13T04:41:51.223Z,86.11
2016-08-13T04:42:51.172Z,86.3
2016-08-13T04:43:51.128Z,86.4
2016-08-13T04:44:51.083Z,86.01
2016-08-13T04:45:51.032Z,85.92
2016-08-13T04:46:50.983Z,85.92
2016-08-13T04:47:50.943Z,86.3
2016-08-13T04:48:51.104Z,85.82
2016-08-13T04:49:51.054Z,85.92
2016-08-13T04:50:50.792Z,86.11
2016-08-13T04:51:50.758Z,86.3
2016-08-13T04:52:50.913Z,86.4
2016-08-13T04:53:51.061Z,86.01
2016-08-13T04:54:50.690Z,85.72
2016-08-13T04:55:49.882Z,85.63
2016-08-13T04:56:50.527Z,85.53
2016-08-13T04:57:50.703Z,86.21
2016-08-13T04:58:50.443Z,86.11
2016-08-13T04:59:50.390Z,86.21
2016-08-13T05:00:50.543Z,86.01
2016-08-13T05:01:50.491Z,86.01
2016-08-13T05:02:50.451Z,86.01
2016-08-13T05:03:50.217Z,86.68
2016-08-13T05:04:50.368Z,85.92
2016-08-13T05:05:50.318Z,86.01
2016-08-13T05:06:50.469Z,85.25
2016-08-13T05:07:50.035Z,86.4
2016-08-13T05:08:49.986Z,86.4
2016-08-13T05:09:49.927Z,86.4
2016-08-13T05:10:49.878Z,86.21
2016-08-13T05:11:49.856Z,85.63
2016-08-13T05:12:49.283Z,85.63
2016-08-13T05:13:49.754Z,85.92
2016-08-13T05:14:49.703Z,85.63
2016-08-13T05:15:49.653Z,85.92
2016-08-13T05:16:49.613Z,85.82
2016-08-13T05:17:49.563Z,86.4
2016-08-13T05:18:49.509Z,85.72
2016-08-13T05:19:49.470Z,85.82
2016-08-13T05:20:49.432Z,85.82
2016-08-13T05:21:49.585Z,85.53
2016-08-13T05:22:49.335Z,85.72
2016-08-13T05:23:49.285Z,85.05
2016-08-13T05:24:49.276Z,84.95
2016-08-13T05:25:49.194Z,84.67
2016-08-13T05:26:49.156Z,85.05
2016-08-13T05:27:49.304Z,84.67
2016-08-13T05:28:49.069Z,84.67
2016-08-13T05:29:49.003Z,84.19
2016-08-13T05:30:48.972Z,83.91
2016-08-13T05:31:48.914Z,83.91
2016-08-13T05:32:49.288Z,84.19
2016-08-13T05:33:48.136Z,84.19
2016-08-13T05:34:48.782Z,84.09
2016-08-13T05:35:48.735Z,84.28
2016-08-13T05:36:48.685Z,84.19
2016-08-13T05:37:48.646Z,84
2016-08-13T05:38:48.594Z,84.09
2016-08-13T05:39:48.553Z,84
2016-08-13T05:40:48.502Z,83.81
2016-08-13T05:41:48.460Z,83.81
2016-08-13T05:42:48.409Z,83.91
2016-08-13T05:43:48.394Z,83.61
2016-08-13T05:44:48.314Z,83.52
2016-08-13T05:45:48.317Z,83.23
2016-08-13T05:46:48.421Z,83.47
2016-08-13T05:47:48.186Z,82.79
2016-08-13T05:48:48.537Z,82.98
2016-08-13T05:49:48.095Z,82.98
2016-08-13T05:50:48.234Z,82.89
2016-08-13T05:51:48.004Z,82.6
2016-08-13T05:52:48.155Z,82.41
2016-08-13T05:53:47.904Z,82.51
2016-08-13T05:54:47.852Z,82.03
2016-08-13T05:55:47.821Z,81.93
2016-08-13T05:56:47.794Z,81.93
2016-08-13T05:57:47.925Z,81.93
2016-08-13T05:58:47.663Z,81.26
2016-08-13T05:59:47.629Z,81.35
2016-08-13T06:00:47.789Z,81.26
2016-08-13T06:01:47.549Z,81.45
2016-08-13T06:02:47.485Z,81.26
2016-08-13T06:03:47.451Z,81.07
2016-08-13T06:04:47.395Z,80.97
2016-08-13T06:05:47.344Z,80.97
2016-08-13T06:06:47.313Z,80.68
2016-08-13T06:07:47.704Z,81.16
2016-08-13T06:08:47.413Z,80.49
2016-08-13T06:09:47.191Z,80.68
2016-08-13T06:10:46.437Z,79.82
2016-08-13T06:11:47.079Z,80.49
2016-08-13T06:12:47.241Z,80.3
2016-08-13T06:13:47.197Z,79.91
2016-08-13T06:14:46.935Z,79.72
2016-08-13T06:15:46.929Z,79.72
2016-08-13T06:16:46.868Z,79.91
2016-08-13T06:17:46.817Z,79.67
2016-08-13T06:18:46.762Z,80.24
2016-08-13T06:19:46.730Z,79.67
2016-08-13T06:20:47.072Z,79.86
2016-08-13T06:21:46.685Z,79.96
2016-08-13T06:22:46.777Z,79.86
2016-08-13T06:23:46.548Z,79.38
2016-08-13T06:24:46.515Z,79.47
2016-08-13T06:25:46.699Z,79.19
2016-08-13T06:26:46.406Z,79.19
2016-08-13T06:27:46.773Z,79.38
2016-08-13T06:28:46.502Z,78.9
2016-08-13T06:29:46.271Z,78.52
2016-08-13T06:30:46.227Z,78.61
2016-08-13T06:31:45.537Z,78.52
2016-08-13T06:32:46.325Z,78.23
2016-08-13T06:33:46.114Z,78.13
2016-08-13T06:34:45.348Z,77.75
2016-08-13T06:35:46.016Z,77.46
2016-08-13T06:36:45.939Z,76.98
2016-08-13T06:37:45.915Z,76.98
2016-08-13T06:38:45.161Z,76.31
2016-08-13T06:39:45.807Z,76.59
2016-08-13T06:40:45.821Z,76.59
2016-08-13T06:41:45.732Z,76.4
2016-08-13T06:42:45.867Z,76.31
2016-08-13T06:43:45.625Z,76.06
2016-08-13T06:44:45.814Z,75.29
2016-08-13T06:45:45.571Z,76.15
2016-08-13T06:46:45.506Z,76.06
2016-08-13T06:47:45.451Z,75.77
2016-08-13T06:48:45.401Z,75.38
2016-08-13T06:49:45.375Z,75.48
2016-08-13T06:50:45.303Z,75.87
2016-08-13T06:51:45.445Z,75.29
2016-08-13T06:52:45.430Z,75.38
2016-08-13T06:53:45.157Z,75
2016-08-13T06:54:45.317Z,75.38
2016-08-13T06:55:44.364Z,75.57
2016-08-13T06:56:45.222Z,74.52
2016-08-13T06:57:44.983Z,74.9
2016-08-13T06:58:44.928Z,74.9
2016-08-13T06:59:44.944Z,75.1
2016-08-13T07:00:44.853Z,74.81
2016-08-13T07:01:45.019Z,74.33
2016-08-13T07:02:44.765Z,74.65
2016-08-13T07:03:44.724Z,74.46
2016-08-13T07:04:44.672Z,74.65
2016-08-13T07:05:44.621Z,74.17
2016-08-13T07:06:44.773Z,74.27
2016-08-13T07:07:43.833Z,74.55
2016-08-13T07:08:44.481Z,74.27
2016-08-13T07:09:44.478Z,74.17
2016-08-13T07:10:44.413Z,73.79
2016-08-13T07:11:44.551Z,74.08
2016-08-13T07:12:44.309Z,73.88
2016-08-13T07:13:44.263Z,74.17
2016-08-13T07:14:43.512Z,73.88
2016-08-13T07:15:44.369Z,73.88
2016-08-13T07:16:44.170Z,73.88
2016-08-13T07:17:43.392Z,73.98
2016-08-13T07:18:43.557Z,73.88
2016-08-13T07:19:44.004Z,73.88
2016-08-13T07:20:43.954Z,73.98
2016-08-13T07:21:43.201Z,73.98
2016-08-13T07:22:43.872Z,74.11
2016-08-13T07:23:43.846Z,74.08
2016-08-13T07:24:43.805Z,73.98
2016-08-13T07:25:43.760Z,74.08
2016-08-13T07:26:42.985Z,74.08
2016-08-13T07:27:43.635Z,74.17
2016-08-13T07:28:43.611Z,73.88
2016-08-13T07:29:42.860Z,73.98
2016-08-13T07:30:43.507Z,73.92
2016-08-13T07:31:43.472Z,73.73
2016-08-13T07:32:42.930Z,73.63
2016-08-13T07:33:43.369Z,73.83
2016-08-13T07:34:43.334Z,73.44
2016-08-13T07:35:42.585Z,73.92
2016-08-13T07:36:43.246Z,74.02
2016-08-13T07:37:43.194Z,73.73
2016-08-13T07:38:43.376Z,73.54
2016-08-13T07:39:43.122Z,73.73
2016-08-13T07:40:43.075Z,73.15
2016-08-13T07:41:42.333Z,73.25
2016-08-13T07:42:42.976Z,73.25
2016-08-13T07:43:43.140Z,73.25
2016-08-13T07:44:42.868Z,73.25
2016-08-13T07:45:42.832Z,73.44
2016-08-13T07:46:42.815Z,73.73
2016-08-13T07:47:42.771Z,73.73
2016-08-13T07:48:42.003Z,73.73
2016-08-13T07:49:43.072Z,74.02
2016-08-13T07:50:42.609Z,74.11
2016-08-13T07:51:42.971Z,74.11
2016-08-13T07:52:42.522Z,74.21
2016-08-13T07:53:42.489Z,73.92
2016-08-13T07:54:42.432Z,73.73
2016-08-13T07:55:42.391Z,73.15
2016-08-13T07:56:42.349Z,73.25
2016-08-13T07:57:42.312Z,73.35
2016-08-13T07:58:42.467Z,73.15
2016-08-13T07:59:42.217Z,73.15
2016-08-13T08:00:42.172Z,73.06
2016-08-13T08:01:42.129Z,73.25
2016-08-13T08:02:42.080Z,73.25
2016-08-13T08:03:42.050Z,73.25
2016-08-13T08:04:42.208Z,73.15
2016-08-13T08:05:42.149Z,73.06
2016-08-13T08:06:41.908Z,73.25
2016-08-13T08:07:41.865Z,73.44
2016-08-13T08:08:41.803Z,72.96
2016-08-13T08:09:41.771Z,72.8
2016-08-13T08:10:41.728Z,72.8
2016-08-13T08:11:41.675Z,72.42
2016-08-13T08:12:41.840Z,72.42
2016-08-13T08:13:41.790Z,72.13
2016-08-13T08:14:41.570Z,72.13
2016-08-13T08:15:41.496Z,71.69
2016-08-13T08:16:41.449Z,71.78
2016-08-13T08:17:41.409Z,71.69
2016-08-13T08:18:41.372Z,71.49
2016-08-13T08:19:40.624Z,71.3
2016-08-13T08:20:41.293Z,71.2
2016-08-13T08:21:41.240Z,71.11
2016-08-13T08:22:41.389Z,70.82
2016-08-13T08:23:41.762Z,70.92
2016-08-13T08:24:41.094Z,70.62
2016-08-13T08:25:41.068Z,70.72
2016-08-13T08:26:41.009Z,70.43
2016-08-13T08:27:41.172Z,70.62
2016-08-13T08:28:41.137Z,71.2
2016-08-13T08:29:40.182Z,70.92
2016-08-13T08:30:40.838Z,71.01
2016-08-13T08:31:40.096Z,70.92
2016-08-13T08:32:40.745Z,71.49
2016-08-13T08:33:40.006Z,71.4
2016-08-13T08:34:40.888Z,71.11
2016-08-13T08:35:40.620Z,71.3
2016-08-13T08:36:40.588Z,71.55
2016-08-13T08:37:40.531Z,71.59
2016-08-13T08:38:39.840Z,71.59
2016-08-13T08:39:40.439Z,71.49
2016-08-13T08:40:40.489Z,71.59
2016-08-13T08:41:40.349Z,71.2
2016-08-13T08:42:40.312Z,71.2
2016-08-13T08:43:40.273Z,71.2
2016-08-13T08:44:40.231Z,71.4
2016-08-13T08:45:39.514Z,71.49
2016-08-13T08:46:39.427Z,71.59
2016-08-13T08:47:40.150Z,71.3
2016-08-13T08:48:40.491Z,71.11
2016-08-13T08:49:40.026Z,70.92
2016-08-13T08:50:39.950Z,70.82
2016-08-13T08:51:40.315Z,71.11
2016-08-13T08:52:39.168Z,70.34
2016-08-13T08:53:39.837Z,70.86
2016-08-13T08:54:39.788Z,70.28
2016-08-13T08:55:39.739Z,69.89
2016-08-13T08:56:39.689Z,69.6
2016-08-13T08:57:39.849Z,69.41
2016-08-13T08:58:39.609Z,69.51
2016-08-13T08:59:39.072Z,69.12
2016-08-13T09:00:39.531Z,69.41
2016-08-13T09:01:39.498Z,69.41
2016-08-13T09:02:39.448Z,69.51
2016-08-13T09:03:39.407Z,69.02
2016-08-13T09:04:39.360Z,68.93
2016-08-13T09:05:39.308Z,68.44
2016-08-13T09:06:39.278Z,68.64
2016-08-13T09:07:39.638Z,68.93
2016-08-13T09:08:39.190Z,68.93
2016-08-13T09:09:39.349Z,69.41
2016-08-13T09:10:39.094Z,69.51
2016-08-13T09:11:39.056Z,69.12
2016-08-13T09:12:38.998Z,68.84
2016-08-13T09:13:39.549Z,68.26
2016-08-13T09:14:38.920Z,68.93
2016-08-13T09:15:38.884Z,68.58
2016-08-13T09:16:38.850Z,68.38
2016-08-13T09:17:38.978Z,67.9
2016-08-13T09:18:38.945Z,67.9
2016-08-13T09:19:38.890Z,68.19
2016-08-13T09:20:38.641Z,68.1
2016-08-13T09:21:38.607Z,68
2016-08-13T09:22:39.046Z,67.61
2016-08-13T09:23:38.719Z,67.74
2016-08-13T09:24:38.875Z,67.46
2016-08-13T09:25:38.428Z,67.26
2016-08-13T09:26:38.417Z,66.97
2016-08-13T09:27:38.354Z,67.46
2016-08-13T09:28:38.310Z,67.36
2016-08-13T09:29:38.477Z,67.36
2016-08-13T09:30:38.213Z,66.88
2016-08-13T09:31:38.200Z,66.49
2016-08-13T09:32:38.118Z,66.39
2016-08-13T09:33:38.301Z,66.62
2016-08-13T09:34:38.047Z,66.62
2016-08-13T09:35:38.095Z,65.95
2016-08-13T09:36:37.968Z,66.52
2016-08-13T09:37:37.905Z,65.66
2016-08-13T09:38:37.883Z,65.85
2016-08-13T09:39:37.829Z,65.95
2016-08-13T09:40:37.777Z,65.47
2016-08-13T09:41:37.738Z,65.5
2016-08-13T09:42:37.899Z,65.5
2016-08-13T09:43:37.658Z,64.82
2016-08-13T09:44:37.802Z,65.01
2016-08-13T09:45:37.566Z,64.92
2016-08-13T09:46:37.533Z,64.92
2016-08-13T09:47:37.520Z,64.92
2016-08-13T09:48:36.750Z,64.53
2016-08-13T09:49:37.410Z,64.92
2016-08-13T09:50:37.363Z,64.92
2016-08-13T09:51:37.516Z,65.01
2016-08-13T09:52:37.276Z,65.01
2016-08-13T09:53:37.439Z,65.01
2016-08-13T09:54:37.550Z,64.82
2016-08-13T09:55:37.469Z,64.53
2016-08-13T09:56:37.139Z,64.34
2016-08-13T09:57:37.889Z,64.05
2016-08-13T09:58:37.068Z,64.15
2016-08-13T09:59:36.997Z,64.53
2016-08-13T10:00:36.232Z,64.15
2016-08-13T10:01:36.892Z,64.47
2016-08-13T10:02:36.856Z,64.28
2016-08-13T10:03:36.320Z,64.28
2016-08-13T10:04:36.075Z,63.79
2016-08-13T10:05:36.727Z,63.89
2016-08-13T10:06:36.679Z,63.79
2016-08-13T10:07:36.638Z,63.76
2016-08-13T10:08:36.581Z,63.85
2016-08-13T10:09:36.553Z,63.85
2016-08-13T10:10:36.513Z,63.79
2016-08-13T10:11:36.472Z,63.5
2016-08-13T10:12:35.722Z,63.31
2016-08-13T10:13:36.390Z,63.21
2016-08-13T10:14:35.839Z,63.12
2016-08-13T10:15:36.546Z,62.92
2016-08-13T10:16:36.482Z,62.34
2016-08-13T10:17:36.234Z,62.54
2016-08-13T10:18:36.172Z,62.82
2016-08-13T10:19:36.135Z,62.15
2016-08-13T10:20:36.325Z,62.37
2016-08-13T10:21:35.749Z,61.89
2016-08-13T10:22:36.020Z,61.51
2016-08-13T10:23:35.976Z,61.31
2016-08-13T10:24:35.916Z,61.8
2016-08-13T10:25:35.869Z,61.28
2016-08-13T10:26:36.021Z,61.51
2016-08-13T10:27:35.780Z,61.96
2016-08-13T10:28:35.750Z,61.28
2016-08-13T10:29:35.699Z,61.28
2016-08-13T10:30:35.652Z,60.61
2016-08-13T10:31:35.618Z,60.41
2016-08-13T10:32:35.571Z,60.31
2016-08-13T10:33:35.240Z,60.31
2016-08-13T10:34:35.498Z,60.51
2016-08-13T10:35:35.640Z,60.13
2016-08-13T10:36:35.412Z,60.03
2016-08-13T10:37:35.359Z,59.58
2016-08-13T10:38:35.506Z,59.48
2016-08-13T10:39:35.271Z,59.48
2016-08-13T10:40:35.270Z,59.48
2016-08-13T10:41:35.187Z,59.58
2016-08-13T10:42:34.531Z,59.48
2016-08-13T10:43:35.098Z,58.9
2016-08-13T10:44:35.055Z,58.7
2016-08-13T10:45:35.015Z,58.9
2016-08-13T10:46:35.194Z,58.8
2016-08-13T10:47:34.932Z,58.9
2016-08-13T10:48:34.899Z,59.48
2016-08-13T10:49:34.857Z,59.09
2016-08-13T10:50:34.798Z,58.8
2016-08-13T10:51:34.768Z,59
2016-08-13T10:52:34.732Z,58.61
2016-08-13T10:53:34.937Z,58.54
2016-08-13T10:54:34.639Z,58.54
2016-08-13T10:55:34.597Z,58.93
2016-08-13T10:56:34.557Z,59
2016-08-13T10:57:34.531Z,59
2016-08-13T10:58:34.482Z,58.7
2016-08-13T10:59:33.728Z,58.8
2016-08-13T11:00:33.691Z,58.8
2016-08-13T11:01:33.663Z,58.7
2016-08-13T11:02:34.315Z,58.8
2016-08-13T11:03:34.456Z,58.7
2016-08-13T11:04:34.229Z,58.51
2016-08-13T11:05:34.180Z,59.09
2016-08-13T11:06:34.140Z,58.87
2016-08-13T11:07:34.105Z,58.87
2016-08-13T11:08:34.056Z,59
2016-08-13T11:09:34.012Z,59
2016-08-13T11:10:34.173Z,58.51
2016-08-13T11:11:33.242Z,58.61
2016-08-13T11:12:33.884Z,58.51
2016-08-13T11:13:33.838Z,58.61
2016-08-13T11:14:33.799Z,58.61
2016-08-13T11:15:33.755Z,58.12
2016-08-13T11:16:33.727Z,58.12
2016-08-13T11:17:33.670Z,58.61
2016-08-13T11:18:33.631Z,58.8
2016-08-13T11:19:33.590Z,58.03
2016-08-13T11:20:33.550Z,57.84
2016-08-13T11:21:32.809Z,58.25
2016-08-13T11:22:33.674Z,58.22
2016-08-13T11:23:33.409Z,58.22
2016-08-13T11:24:33.580Z,58.12
2016-08-13T11:25:32.637Z,58.12
2016-08-13T11:26:33.301Z,58.25
2016-08-13T11:27:32.544Z,57.54
2016-08-13T11:28:33.204Z,57.54
2016-08-13T11:29:32.475Z,58.12
2016-08-13T11:30:33.109Z,58.22
2016-08-13T11:31:33.082Z,57.93
2016-08-13T11:32:33.046Z,58.12
2016-08-13T11:33:32.994Z,57.74
2016-08-13T11:34:32.947Z,57.74
2016-08-13T11:35:32.918Z,57.93
2016-08-13T11:36:33.063Z,58.12
2016-08-13T11:37:32.810Z,57.84
2016-08-13T11:38:32.794Z,57.54
2016-08-13T11:39:32.739Z,58.03
2016-08-13T11:40:32.711Z,57.93
2016-08-13T11:41:32.853Z,58.12
2016-08-13T11:42:32.607Z,58.03
2016-08-13T11:43:32.582Z,57.93
2016-08-13T11:44:32.530Z,57.84
2016-08-13T11:45:32.480Z,57.81
2016-08-13T11:46:32.452Z,58.1
2016-08-13T11:47:32.405Z,57.64
2016-08-13T11:48:32.353Z,58.03
2016-08-13T11:49:32.512Z,57.64
2016-08-13T11:50:32.272Z,57.35
2016-08-13T11:51:32.232Z,56.96
2016-08-13T11:52:32.181Z,57.06
2016-08-13T11:53:32.142Z,57.45
2016-08-13T11:54:32.102Z,57.26
2016-08-13T11:55:32.272Z,57.26
2016-08-13T11:56:32.038Z,56.87
2016-08-13T11:57:31.984Z,57.45
2016-08-13T11:58:31.945Z,57.06
2016-08-13T11:59:31.893Z,56.87
2016-08-13T12:00:31.855Z,57.06
2016-08-13T12:01:32.026Z,56.77
2016-08-13T12:02:31.807Z,56.77
2016-08-13T12:03:32.120Z,57.06
2016-08-13T12:04:31.683Z,56.87
2016-08-13T12:05:31.631Z,56.87
2016-08-13T12:06:31.603Z,56.41
2016-08-13T12:07:31.547Z,56.22
2016-08-13T12:08:31.715Z,55.45
2016-08-13T12:09:31.461Z,55.55
2016-08-13T12:10:31.631Z,55.47
2016-08-13T12:11:31.413Z,55.38
2016-08-13T12:12:31.346Z,54.71
2016-08-13T12:13:31.293Z,54.41
2016-08-13T12:14:31.655Z,54.25
2016-08-13T12:15:31.222Z,54.13
2016-08-13T12:16:31.172Z,54.51
2016-08-13T12:17:31.133Z,54.32
2016-08-13T12:18:31.092Z,54.32
2016-08-13T12:19:31.043Z,54.61
2016-08-13T12:20:30.324Z,54.9
2016-08-13T12:21:30.969Z,54.13
2016-08-13T12:22:30.946Z,54.58
2016-08-13T12:23:30.882Z,54.39
2016-08-13T12:24:30.836Z,54.58
2016-08-13T12:25:30.789Z,54.87
2016-08-13T12:26:30.973Z,54.39
2016-08-13T12:27:31.523Z,54.29
2016-08-13T12:28:30.664Z,54.1
2016-08-13T12:29:30.829Z,53.45
2016-08-13T12:30:30.583Z,53.45
2016-08-13T12:31:30.533Z,53.16
2016-08-13T12:32:29.792Z,53.09
2016-08-13T12:33:29.954Z,52.89
2016-08-13T12:34:30.422Z,52.61
2016-08-13T12:35:30.587Z,52.51
2016-08-13T12:36:30.528Z,52.22
2016-08-13T12:37:29.791Z,51.83
2016-08-13T12:38:30.243Z,52.61
2016-08-13T12:39:30.204Z,52.41
2016-08-13T12:40:30.157Z,52.51
2016-08-13T12:41:29.413Z,52
2016-08-13T12:42:30.076Z,52.39
2016-08-13T12:43:30.044Z,52.48
2016-08-13T12:44:30.013Z,52.48
2016-08-13T12:45:30.160Z,52.48
2016-08-13T12:46:30.134Z,52.29
2016-08-13T12:47:29.877Z,52.48
2016-08-13T12:48:30.020Z,53.06
2016-08-13T12:49:29.782Z,53.03
2016-08-13T12:50:29.743Z,53.33
2016-08-13T12:51:29.697Z,52.75
2016-08-13T12:52:29.649Z,53.16
2016-08-13T12:53:28.915Z,53.13
2016-08-13T12:54:29.571Z,52.36
2016-08-13T12:55:29.530Z,53.03
2016-08-13T12:56:29.490Z,52.84